Terminal Aerodrome Forecast
Issued by NWS

Home | Current Version | Previous Version | Text Only | Print | Product List | Glossary On
Versions: 1 2 3 4 5 6 7 8 9 10 11 12
415
FTPA31 PHFO 181125
TAFHMK
TAF
PHMK 181125Z 1812/1912 04011KT P6SM FEW018 SCT030
     FM182100 06014G20KT P6SM FEW025 SCT035
     FM190600 04011KT P6SM FEW025 SCT035=

USA.gov is the U.S. government's official web portal to all federal, state and local government web resources and services.